Time;durP1;ratioP1;P1;durP2;ratioP2;P2;SDS_P1;SDS_P2;PMS_P1;PMS_P2;Temp;Humidity;BMP_temperature;BMP_pressure;BME280_temperature;BME280_humidity;BME280_pressure;Samples;Min_cycle;Max_cycle;Signal;HPM_P1;HPM_P2
2022/09/04 00:02:24;;;;;;;3.50;3.30;;;15.50;99.90;;;;;;5011917;28;20542;-74
2022/09/04 00:05:00;;;;;;;4.50;4.10;;;15.50;99.90;;;;;;5012639;28;20505;-73
2022/09/04 00:07:29;;;;;;;4.63;4.23;;;15.40;99.90;;;;;;5010254;28;20430;-74
2022/09/04 00:10:08;;;;;;;4.30;4.00;;;15.40;99.90;;;;;;5002666;28;20466;-74
2022/09/04 00:12:42;;;;;;;6.37;4.40;;;15.30;99.90;;;;;;5009487;28;20467;-74
2022/09/04 00:15:14;;;;;;;4.80;4.40;;;15.30;99.90;;;;;;5012485;28;20429;-74
2022/09/04 00:17:49;;;;;;;4.90;4.30;;;15.30;99.90;;;;;;5014136;28;20517;-73
2022/09/04 00:20:30;;;;;;;5.73;4.83;;;15.30;99.90;;;;;;4999470;28;20450;-74
2022/09/04 00:23:02;;;;;;;5.00;4.40;;;15.20;99.90;;;;;;4997720;28;20549;-73
2022/09/04 00:25:38;;;;;;;7.50;4.90;;;15.20;99.90;;;;;;5006428;28;20514;-73
2022/09/04 00:28:09;;;;;;;5.83;4.77;;;15.10;99.90;;;;;;5014014;28;20513;-73
2022/09/04 00:30:42;;;;;;;5.27;4.80;;;15.10;99.90;;;;;;5014119;28;20429;-74
2022/09/04 00:33:13;;;;;;;4.70;4.30;;;15.10;99.90;;;;;;5013461;28;20473;-74
2022/09/04 00:35:46;;;;;;;5.23;4.63;;;15.10;99.90;;;;;;5005674;28;20426;-74
2022/09/04 00:38:19;;;;;;;6.80;5.00;;;15.00;99.90;;;;;;5009598;28;20437;-74
2022/09/04 00:40:54;;;;;;;4.93;4.60;;;15.00;99.90;;;;;;5013809;28;20440;-74
2022/09/04 00:44:03;;;;;;;5.73;5.23;;;15.00;99.90;;;;;;4998682;28;20474;-74
2022/09/04 00:47:02;;;;;;;4.77;4.37;;;14.90;99.90;;;;;;5000483;28;20814;-74
2022/09/04 00:49:58;;;;;;;4.70;4.30;;;14.90;99.90;;;;;;5001946;28;20530;-73
2022/09/04 00:52:43;;;;;;;8.60;4.87;;;14.90;99.90;;;;;;4999290;28;20497;-74
2022/09/04 00:55:27;;;;;;;5.00;4.60;;;14.90;99.90;;;;;;4994782;28;20438;-74
2022/09/04 00:58:12;;;;;;;10.93;4.83;;;14.90;99.90;;;;;;5002112;28;20538;-73
2022/09/04 01:00:39;;;;;;;4.67;4.27;;;14.80;99.90;;;;;;4994657;28;20435;-74
2022/09/04 01:03:33;;;;;;;5.70;5.20;;;14.80;99.90;;;;;;5001118;28;20891;-74
2022/09/04 01:06:28;;;;;;;6.00;4.93;;;14.70;99.90;;;;;;5008778;28;20465;-74
2022/09/04 01:09:15;;;;;;;5.17;4.67;;;14.70;99.90;;;;;;5002041;28;20462;-74
2022/09/04 01:11:50;;;;;;;5.30;4.90;;;14.80;99.90;;;;;;5006720;28;20459;-74
2022/09/04 01:14:28;;;;;;;5.60;5.10;;;14.70;99.90;;;;;;5011761;28;20501;-73
2022/09/04 01:17:06;;;;;;;5.00;4.50;;;14.70;99.90;;;;;;4996996;28;20831;-73
2022/09/04 01:19:49;;;;;;;12.13;4.90;;;14.70;99.90;;;;;;5002382;28;20458;-73
2022/09/04 01:22:29;;;;;;;5.20;4.70;;;14.70;99.90;;;;;;5001943;28;20536;-74
2022/09/04 01:25:04;;;;;;;6.23;5.30;;;14.70;99.90;;;;;;4996306;28;20462;-74
2022/09/04 01:27:42;;;;;;;6.77;6.07;;;14.70;99.90;;;;;;4994206;28;20459;-73
2022/09/04 01:30:12;;;;;;;5.33;4.80;;;14.60;99.90;;;;;;4996455;28;20457;-73
2022/09/04 01:32:51;;;;;;;5.03;4.53;;;14.60;99.90;;;;;;5005447;28;20475;-73
2022/09/04 01:35:29;;;;;;;5.70;5.20;;;14.60;99.90;;;;;;5004597;28;20451;-73
2022/09/04 01:38:02;;;;;;;6.57;5.53;;;14.60;99.90;;;;;;5011677;28;20538;-73
2022/09/04 01:40:42;;;;;;;9.47;6.27;;;14.50;99.90;;;;;;5005713;28;20505;-73
2022/09/04 01:43:12;;;;;;;6.77;5.57;;;14.50;99.90;;;;;;5012768;28;20475;-73
2022/09/04 01:46:05;;;;;;;7.43;5.33;;;14.40;99.90;;;;;;5000596;28;20952;-73
2022/09/04 01:48:41;;;;;;;7.27;5.10;;;14.30;99.90;;;;;;4999846;28;20455;-73
2022/09/04 01:51:16;;;;;;;6.83;6.10;;;14.30;99.90;;;;;;5011783;28;20955;-73
2022/09/04 01:53:49;;;;;;;6.10;5.50;;;14.30;99.90;;;;;;4993671;28;20483;-73
2022/09/04 01:56:20;;;;;;;12.03;5.57;;;14.20;99.90;;;;;;5009703;28;20451;-73
2022/09/04 01:58:55;;;;;;;6.13;5.17;;;14.20;99.90;;;;;;5012103;28;20448;-73
2022/09/04 02:01:31;;;;;;;5.70;4.97;;;14.10;99.90;;;;;;5009551;28;20520;-73
2022/09/04 02:04:06;;;;;;;7.73;5.37;;;14.10;99.90;;;;;;5012525;28;20475;-73
2022/09/04 02:06:41;;;;;;;5.50;5.00;;;14.10;99.90;;;;;;4996816;28;20460;-73
2022/09/04 02:09:24;;;;;;;5.27;4.80;;;14.10;99.90;;;;;;5001193;28;20482;-73
2022/09/04 02:12:10;;;;;;;6.87;5.60;;;14.00;99.90;;;;;;4997115;28;20456;-73
2022/09/04 02:14:44;;;;;;;6.23;5.30;;;14.00;99.90;;;;;;5005171;28;20467;-73
2022/09/04 02:17:17;;;;;;;9.87;5.80;;;14.00;99.90;;;;;;4995646;28;20506;-73
2022/09/04 02:20:06;;;;;;;6.70;5.70;;;14.00;99.90;;;;;;4997944;28;20455;-73
2022/09/04 02:22:43;;;;;;;6.20;5.30;;;14.00;99.90;;;;;;4993105;28;21103;-73
2022/09/04 02:25:20;;;;;;;8.53;6.23;;;13.90;99.90;;;;;;4994890;28;20471;-74
2022/09/04 02:27:59;;;;;;;6.20;5.70;;;13.90;99.90;;;;;;4997916;28;20522;-73
2022/09/04 02:30:30;;;;;;;5.63;5.13;;;13.90;99.90;;;;;;4992551;28;20549;-73
2022/09/04 02:33:04;;;;;;;7.17;5.43;;;13.90;99.90;;;;;;4992881;28;20484;-73
2022/09/04 02:35:39;;;;;;;7.93;5.67;;;13.90;99.90;;;;;;4998271;28;20447;-73
2022/09/04 02:38:14;;;;;;;7.20;5.50;;;13.90;99.90;;;;;;5005955;28;20463;-73
2022/09/04 02:40:50;;;;;;;6.23;5.70;;;13.80;99.90;;;;;;4992490;28;20969;-73
2022/09/04 02:43:34;;;;;;;6.40;5.80;;;13.80;99.90;;;;;;4992364;28;21003;-73
2022/09/04 02:46:08;;;;;;;6.27;5.77;;;13.80;99.90;;;;;;5007917;28;20455;-73
2022/09/04 02:48:46;;;;;;;6.83;6.23;;;13.70;99.90;;;;;;5001395;28;20487;-73
2022/09/04 02:51:24;;;;;;;6.80;6.20;;;13.70;99.90;;;;;;4992673;28;20959;-73
2022/09/04 02:53:59;;;;;;;6.53;6.00;;;13.60;99.90;;;;;;4995166;28;20475;-73
2022/09/04 02:56:38;;;;;;;7.40;6.70;;;13.60;99.90;;;;;;4998750;28;20459;-73
2022/09/04 02:59:28;;;;;;;7.00;6.30;;;13.50;99.90;;;;;;4996584;28;20474;-73
2022/09/04 03:01:59;;;;;;;7.43;6.67;;;13.50;99.90;;;;;;5011301;28;20455;-73
2022/09/04 03:04:35;;;;;;;7.40;6.70;;;13.50;99.90;;;;;;5004189;28;20546;-73
2022/09/04 03:07:09;;;;;;;7.57;6.87;;;13.40;99.90;;;;;;5004598;28;20467;-73
2022/09/04 03:09:41;;;;;;;7.60;6.90;;;13.40;99.90;;;;;;4993460;28;20487;-73
2022/09/04 03:12:25;;;;;;;6.90;6.30;;;13.40;99.90;;;;;;4993199;28;20464;-73
2022/09/04 03:14:59;;;;;;;7.23;6.53;;;13.40;99.90;;;;;;4997478;28;20455;-73
2022/09/04 03:17:36;;;;;;;7.67;6.93;;;13.30;99.90;;;;;;5005730;28;20447;-73
2022/09/04 03:20:09;;;;;;;8.70;6.47;;;13.30;99.90;;;;;;4999738;28;20450;-73
2022/09/04 03:22:43;;;;;;;7.37;6.67;;;13.30;99.90;;;;;;5010519;28;20539;-73
2022/09/04 03:25:34;;;;;;;10.37;6.63;;;13.30;99.90;;;;;;5006553;28;20947;-73
2022/09/04 03:28:02;;;;;;;8.33;6.57;;;13.20;99.90;;;;;;5011379;28;20451;-73
2022/09/04 03:30:31;;;;;;;6.73;5.47;;;13.30;99.90;;;;;;5002348;28;20487;-73
2022/09/04 03:33:05;;;;;;;6.10;5.20;;;13.20;99.90;;;;;;4994581;28;20481;-73
2022/09/04 03:35:38;;;;;;;5.03;4.60;;;13.20;99.90;;;;;;5008516;28;20532;-73
2022/09/04 03:38:19;;;;;;;4.83;4.43;;;13.30;99.90;;;;;;5003295;28;20471;-73
2022/09/04 03:40:54;;;;;;;4.80;4.10;;;13.30;99.90;;;;;;5006641;28;20455;-73
2022/09/04 03:43:55;;;;;;;8.70;4.40;;;13.30;99.90;;;;;;5014218;28;20474;-73
2022/09/04 03:46:33;;;;;;;5.00;4.50;;;13.30;99.90;;;;;;5006735;28;20520;-73
2022/09/04 03:49:11;;;;;;;5.00;3.73;;;13.20;99.90;;;;;;5011475;28;20501;-73
2022/09/04 03:51:50;;;;;;;4.97;4.20;;;13.30;99.90;;;;;;5011876;28;20447;-73
2022/09/04 03:54:38;;;;;;;4.17;3.87;;;13.30;99.90;;;;;;4995926;28;20474;-73
2022/09/04 03:57:25;;;;;;;4.23;3.83;;;13.30;99.90;;;;;;5002569;28;20487;-73
2022/09/04 04:00:05;;;;;;;6.73;4.27;;;13.20;99.90;;;;;;5004017;28;20443;-73
2022/09/04 04:02:46;;;;;;;7.77;4.50;;;13.20;99.90;;;;;;5007228;28;20479;-73
2022/09/04 04:05:32;;;;;;;4.13;3.83;;;13.20;99.90;;;;;;4995625;28;20452;-73
2022/09/04 04:08:12;;;;;;;7.97;4.00;;;13.30;99.90;;;;;;4995448;28;20960;-73
2022/09/04 04:10:49;;;;;;;4.30;4.00;;;13.30;99.90;;;;;;4995150;28;20526;-73
2022/09/04 04:13:34;;;;;;;4.50;4.10;;;13.30;99.90;;;;;;5000312;28;21073;-73
2022/09/04 04:16:20;;;;;;;4.80;4.40;;;13.30;99.90;;;;;;5005899;28;20467;-73
2022/09/04 04:18:59;;;;;;;4.37;4.00;;;13.30;99.90;;;;;;5003321;28;20882;-73
2022/09/04 04:21:38;;;;;;;5.80;4.40;;;13.30;99.90;;;;;;5002486;28;20885;-73
2022/09/04 04:24:37;;;;;;;5.83;4.40;;;13.30;99.90;;;;;;5011123;28;20482;-73
2022/09/04 04:27:24;;;;;;;4.83;4.40;;;13.30;99.90;;;;;;5010578;28;20458;-73
2022/09/04 04:30:04;;;;;;;4.90;4.40;;;13.30;99.90;;;;;;5005640;28;20917;-73
2022/09/04 04:32:55;;;;;;;12.03;4.07;;;13.40;99.90;;;;;;4995241;28;20475;-73
2022/09/04 04:35:33;;;;;;;4.70;4.40;;;13.50;99.90;;;;;;4994997;28;20426;-73
2022/09/04 04:38:16;;;;;;;5.07;4.67;;;13.50;99.90;;;;;;4995145;28;20521;-73
2022/09/04 04:40:58;;;;;;;8.13;4.93;;;13.50;99.90;;;;;;5001513;28;20733;-73
2022/09/04 04:43:32;;;;;;;5.17;4.60;;;13.60;99.90;;;;;;5000614;28;20476;-73
2022/09/04 04:46:04;;;;;;;5.30;4.90;;;13.60;99.90;;;;;;4997812;28;20514;-73
2022/09/04 04:49:06;;;;;;;4.83;4.40;;;13.70;99.90;;;;;;4996535;28;20464;-73
2022/09/04 04:51:46;;;;;;;5.80;4.30;;;13.70;99.90;;;;;;5004047;28;20562;-73
2022/09/04 04:54:30;;;;;;;5.00;4.60;;;13.80;99.90;;;;;;4994595;28;20476;-73
2022/09/04 04:57:03;;;;;;;8.83;4.17;;;13.80;99.90;;;;;;5009642;28;20459;-73
2022/09/04 04:59:42;;;;;;;4.33;4.03;;;13.90;99.90;;;;;;5001901;28;20481;-73
2022/09/04 05:02:20;;;;;;;5.43;4.93;;;13.90;99.90;;;;;;5011915;28;20451;-73
2022/09/04 05:04:53;;;;;;;5.10;4.73;;;14.00;99.90;;;;;;4994404;28;20494;-73
2022/09/04 05:07:34;;;;;;;7.30;4.90;;;14.00;99.90;;;;;;4996941;28;20521;-73
2022/09/04 05:10:09;;;;;;;5.73;5.10;;;14.00;99.90;;;;;;5006565;28;20490;-73
2022/09/04 05:12:51;;;;;;;7.60;5.37;;;14.00;99.90;;;;;;4996671;28;20479;-73
2022/09/04 05:15:24;;;;;;;6.17;5.67;;;14.10;99.90;;;;;;4993835;28;20464;-73
2022/09/04 05:17:54;;;;;;;6.80;5.90;;;14.10;99.90;;;;;;4994498;28;20514;-73
2022/09/04 05:20:43;;;;;;;6.83;5.93;;;14.10;99.90;;;;;;5004148;28;20600;-73
2022/09/04 05:23:20;;;;;;;8.67;5.73;;;14.20;99.90;;;;;;4994135;28;20479;-73
2022/09/04 05:25:53;;;;;;;6.60;5.17;;;14.20;99.90;;;;;;4994490;28;20532;-73
2022/09/04 05:28:28;;;;;;;7.30;6.10;;;14.30;99.90;;;;;;5004505;28;20459;-73
2022/09/04 05:31:04;;;;;;;6.63;5.47;;;14.30;99.90;;;;;;5006081;28;20488;-73
2022/09/04 05:33:40;;;;;;;8.27;5.40;;;14.40;99.90;;;;;;5005029;28;20441;-72
2022/09/04 05:36:16;;;;;;;7.70;6.40;;;14.50;99.90;;;;;;5011209;28;20425;-72
2022/09/04 05:38:51;;;;;;;9.57;6.10;;;14.50;99.90;;;;;;5012758;28;20463;-72
2022/09/04 05:41:33;;;;;;;10.10;7.10;;;14.60;99.90;;;;;;5011973;28;20958;-72
2022/09/04 05:44:11;;;;;;;8.33;6.80;;;14.60;99.90;;;;;;5011750;28;20566;-72
2022/09/04 05:46:49;;;;;;;7.20;6.50;;;14.70;99.90;;;;;;5003122;28;20451;-72
2022/09/04 05:49:26;;;;;;;12.10;7.77;;;14.70;99.90;;;;;;5000983;28;20527;-72
2022/09/04 05:52:35;;;;;;;13.40;8.40;;;14.80;99.90;;;;;;4999303;28;20482;-72
2022/09/04 05:55:36;;;;;;;16.37;7.23;;;14.80;99.90;;;;;;4957652;28;20428;-72
2022/09/04 05:58:18;;;;;;;11.63;6.40;;;14.80;99.90;;;;;;4939228;28;20949;-72
2022/09/04 06:00:54;;;;;;;11.30;6.80;;;14.80;99.90;;;;;;4986141;28;20943;-72
2022/09/04 06:03:50;;;;;;;10.87;7.53;;;14.80;99.90;;;;;;5007008;28;20558;-72
2022/09/04 06:06:22;;;;;;;20.03;8.37;;;14.80;99.90;;;;;;4993181;28;20514;-72
2022/09/04 06:09:15;;;;;;;27.90;11.50;;;14.80;99.90;;;;;;4996925;28;20507;-72
2022/09/04 06:12:02;;;;;;;35.50;12.80;;;14.80;99.90;;;;;;5005559;28;20486;-77
2022/09/04 06:15:12;;;;;;;37.70;13.90;;;14.80;99.90;;;;;;4996565;28;20833;-74
2022/09/04 06:17:55;;;;;;;33.77;14.53;;;14.90;99.90;;;;;;5011633;28;21005;-73
2022/09/04 06:20:46;;;;;;;47.00;15.00;;;14.90;99.90;;;;;;5005774;28;20509;-74
2022/09/04 06:23:29;;;;;;;44.73;14.57;;;14.90;99.90;;;;;;4995441;28;20454;-73
2022/09/04 06:26:15;;;;;;;52.73;15.80;;;14.90;99.90;;;;;;5004805;28;20458;-76
2022/09/04 06:29:18;;;;;;;69.33;17.10;;;15.10;99.90;;;;;;5004805;28;20456;-75
2022/09/04 06:31:58;;;;;;;58.83;17.07;;;15.30;99.90;;;;;;4997117;28;20486;-75
2022/09/04 06:34:42;;;;;;;43.03;14.83;;;15.40;99.90;;;;;;4993874;28;20927;-75
2022/09/04 06:37:19;;;;;;;48.83;15.67;;;15.60;99.90;;;;;;5008014;28;20907;-76
2022/09/04 06:40:00;;;;;;;61.40;16.00;;;15.60;99.90;;;;;;5007436;28;20430;-76
2022/09/04 06:42:47;;;;;;;51.90;14.10;;;15.50;99.90;;;;;;4992522;28;20447;-77
2022/09/04 06:45:23;;;;;;;56.63;16.80;;;15.50;99.90;;;;;;5002261;28;20768;-77
2022/09/04 06:48:03;;;;;;;49.00;17.40;;;15.50;99.90;;;;;;5010195;28;20437;-76
2022/09/04 06:50:38;;;;;;;57.53;16.40;;;15.50;99.90;;;;;;5010225;28;20486;-75
2022/09/04 06:53:21;;;;;;;77.43;18.10;;;15.50;99.90;;;;;;4994283;28;20504;-76
2022/09/04 06:56:01;;;;;;;62.47;17.73;;;15.50;99.90;;;;;;5010440;28;20509;-76
2022/09/04 06:59:22;;;;;;;50.07;15.87;;;15.50;99.90;;;;;;4999541;28;20959;-76
2022/09/04 07:02:00;;;;;;;59.10;16.53;;;15.70;99.90;;;;;;4934113;28;20913;-76
2022/09/04 07:04:43;;;;;;;57.03;15.13;;;15.90;99.90;;;;;;4950734;28;20465;-75
2022/09/04 07:07:18;;;;;;;62.80;16.70;;;16.00;99.90;;;;;;4996427;28;20453;-76
2022/09/04 07:09:49;;;;;;;54.37;15.57;;;16.00;99.90;;;;;;4995874;28;20484;-77
2022/09/04 07:12:51;;;;;;;54.30;15.90;;;16.00;99.90;;;;;;5009432;28;20490;-76
2022/09/04 07:15:46;;;;;;;51.20;15.90;;;16.10;99.90;;;;;;4991393;28;20438;-75
2022/09/04 07:18:31;;;;;;;49.83;16.17;;;16.10;99.90;;;;;;4992587;28;20423;-74
2022/09/04 07:21:10;;;;;;;40.90;14.37;;;16.20;99.90;;;;;;4996844;28;20513;-75
2022/09/04 07:23:47;;;;;;;48.20;15.57;;;16.30;99.90;;;;;;5000128;28;20445;-75
2022/09/04 07:26:26;;;;;;;44.53;15.90;;;16.50;99.90;;;;;;5002441;28;20456;-75
2022/09/04 07:29:18;;;;;;;46.50;14.27;;;16.50;99.90;;;;;;5004730;28;20446;-75
2022/09/04 07:31:54;;;;;;;46.30;14.30;;;16.80;99.90;;;;;;5008805;28;20465;-76
2022/09/04 07:34:27;;;;;;;49.30;15.90;;;17.00;99.90;;;;;;5007954;28;20425;-75
2022/09/04 07:37:00;;;;;;;52.47;16.07;;;17.20;99.90;;;;;;5009117;28;20437;-74
2022/09/04 07:39:34;;;;;;;45.40;15.30;;;17.30;99.90;;;;;;5005463;28;20791;-75
2022/09/04 07:42:08;;;;;;;42.90;15.53;;;17.40;99.90;;;;;;4994853;28;20476;-75
2022/09/04 07:44:43;;;;;;;51.43;15.73;;;17.50;99.90;;;;;;5001442;28;20438;-74
2022/09/04 07:47:15;;;;;;;49.47;16.07;;;17.60;99.90;;;;;;4991412;28;20506;-73
2022/09/04 07:49:51;;;;;;;46.13;16.00;;;17.50;99.90;;;;;;4992147;28;20836;-75
2022/09/04 07:52:31;;;;;;;45.03;16.33;;;17.70;99.90;;;;;;5004313;28;20881;-73
2022/09/04 07:55:10;;;;;;;42.30;15.73;;;17.60;99.90;;;;;;4990317;28;20426;-73
2022/09/04 07:58:06;;;;;;;43.63;15.83;;;17.60;99.90;;;;;;4992781;28;20455;-73
2022/09/04 08:00:43;;;;;;;35.30;14.80;;;17.60;99.90;;;;;;4999249;28;20422;-73
2022/09/04 08:03:23;;;;;;;36.33;14.30;;;17.70;99.90;;;;;;4995775;28;20442;-74
2022/09/04 08:05:54;;;;;;;28.37;13.47;;;17.80;99.90;;;;;;5007615;28;20429;-73
2022/09/04 08:09:06;;;;;;;66.27;26.13;;;17.90;99.90;;;;;;5010412;28;20498;-73
2022/09/04 08:11:57;;;;;;;38.07;13.27;;;18.00;99.90;;;;;;5010468;28;20514;-73
2022/09/04 08:14:32;;;;;;;32.10;13.60;;;18.30;99.90;;;;;;4991310;28;20539;-73
2022/09/04 08:17:41;;;;;;;22.47;11.90;;;18.40;99.90;;;;;;4996345;28;20455;-74
2022/09/04 08:20:19;;;;;;;32.70;14.23;;;18.40;99.90;;;;;;5006090;28;20434;-73
2022/09/04 08:22:57;;;;;;;33.37;12.90;;;18.40;99.90;;;;;;4996720;28;20445;-73
2022/09/04 08:25:28;;;;;;;22.83;12.13;;;18.40;99.90;;;;;;5002281;28;20865;-73
2022/09/04 08:28:12;;;;;;;29.27;14.20;;;18.40;99.90;;;;;;4998114;28;20792;-71
2022/09/04 08:30:46;;;;;;;24.90;13.70;;;18.50;99.90;;;;;;5005962;28;20426;-72
2022/09/04 08:33:33;;;;;;;23.77;13.00;;;18.70;99.90;;;;;;5005634;28;21107;-72
2022/09/04 08:36:03;;;;;;;24.60;12.37;;;18.90;99.90;;;;;;4995341;28;20460;-72
2022/09/04 08:38:43;;;;;;;26.10;13.37;;;19.10;99.90;;;;;;4995295;28;20513;-73
2022/09/04 08:41:59;;;;;;;26.20;12.10;;;19.40;99.90;;;;;;4997838;28;20459;-72
2022/09/04 08:45:12;;;;;;;29.80;13.00;;;19.80;99.90;;;;;;5007974;28;20452;-72
2022/09/04 08:48:03;;;;;;;27.67;12.97;;;19.80;99.90;;;;;;4995149;28;20943;-73
2022/09/04 08:51:07;;;;;;;22.50;13.30;;;19.90;99.90;;;;;;4994232;28;20440;-72
2022/09/04 08:53:56;;;;;;;25.73;12.87;;;20.10;99.90;;;;;;4994982;28;20482;-73
2022/09/04 08:56:29;;;;;;;22.83;12.60;;;20.40;99.90;;;;;;4998637;28;20451;-73
2022/09/04 08:59:27;;;;;;;27.90;12.90;;;20.80;99.90;;;;;;5011099;28;20455;-72
2022/09/04 09:02:23;;;;;;;21.30;11.53;;;20.90;99.90;;;;;;4993611;28;20964;-73
2022/09/04 09:05:22;;;;;;;25.53;12.83;;;20.80;99.90;;;;;;4994130;28;20456;-73
2022/09/04 09:08:22;;;;;;;22.97;12.70;;;21.10;99.90;;;;;;5005715;28;20475;-73
2022/09/04 09:11:40;;;;;;;24.20;12.53;;;21.50;99.90;;;;;;5012193;28;20546;-73
2022/09/04 09:14:59;;;;;;;22.83;11.30;;;22.00;99.90;;;;;;4993447;28;20825;-73
2022/09/04 09:17:39;;;;;;;22.43;11.40;;;22.50;99.90;;;;;;4978993;28;20538;-76
2022/09/04 09:20:29;;;;;;;19.57;11.63;;;22.80;99.90;;;;;;4994357;28;20498;-77
2022/09/04 09:23:18;;;;;;;17.97;10.97;;;23.00;99.90;;;;;;4998977;28;20519;-77
2022/09/04 09:25:50;;;;;;;19.97;10.50;;;23.10;99.90;;;;;;4994164;28;20452;-77
2022/09/04 09:28:54;;;;;;;19.38;10.50;;;23.30;99.90;;;;;;5004656;28;20463;-76
2022/09/04 09:31:56;;;;;;;27.37;11.70;;;23.60;99.90;;;;;;4995361;28;20564;-77
2022/09/04 09:35:11;;;;;;;19.93;10.37;;;23.70;99.90;;;;;;4993434;28;20443;-77
2022/09/04 09:38:23;;;;;;;21.27;10.03;;;23.70;99.90;;;;;;4995304;28;20808;-77
2022/09/04 09:41:27;;;;;;;14.30;9.30;;;23.50;99.90;;;;;;4993965;28;20459;-77
2022/09/04 09:44:34;;;;;;;17.20;9.70;;;23.60;99.90;;;;;;4983817;28;20571;-77
2022/09/04 09:47:45;;;;;;;15.37;9.27;;;24.00;99.90;;;;;;5008751;28;20455;-77
2022/09/04 09:50:41;;;;;;;13.90;10.03;;;24.50;99.90;;;;;;5008638;28;20460;-77
2022/09/04 09:53:44;;;;;;;17.03;9.50;;;24.30;99.90;;;;;;5010946;28;20558;-76
2022/09/04 09:56:51;;;;;;;15.13;9.97;;;24.40;99.90;;;;;;4997271;28;20873;-76
2022/09/04 09:59:50;;;;;;;16.37;9.40;;;24.50;99.90;;;;;;4994793;28;20447;-76
2022/09/04 10:03:02;;;;;;;15.77;10.83;;;24.80;99.90;;;;;;4998213;28;20476;-77
2022/09/04 10:05:59;;;;;;;15.50;9.60;;;24.80;99.90;;;;;;4997886;28;20491;-77
2022/09/04 10:09:08;;;;;;;13.63;9.17;;;24.90;99.90;;;;;;4998494;28;20518;-76
2022/09/04 10:12:05;;;;;;;13.30;8.57;;;25.00;99.90;;;;;;4960951;28;20899;-77
2022/09/04 10:15:19;;;;;;;13.13;8.50;;;24.60;99.90;;;;;;4993899;28;20462;-74
2022/09/04 10:18:25;;;;;;;16.07;8.60;;;24.30;99.90;;;;;;5007449;28;20455;-76
2022/09/04 10:21:29;;;;;;;15.50;8.70;;;24.30;99.90;;;;;;5001360;28;20459;-76
2022/09/04 10:24:21;;;;;;;17.47;9.17;;;24.60;99.90;;;;;;5012065;28;20478;-75
2022/09/04 10:27:35;;;;;;;11.40;7.80;;;24.50;99.90;;;;;;4979514;28;20858;-76
2022/09/04 10:30:05;;;;;;;18.97;8.77;;;24.60;99.90;;;;;;4944469;29;20469;-76
2022/09/04 10:32:53;;;;;;;13.50;8.07;;;24.90;99.90;;;;;;4981338;28;20488;-77
2022/09/04 10:35:26;;;;;;;13.70;9.17;;;25.10;99.90;;;;;;5002790;28;20507;-76
2022/09/04 10:38:17;;;;;;;13.17;9.07;;;25.30;99.90;;;;;;5011299;28;20471;-76
2022/09/04 10:41:14;;;;;;;13.10;7.97;;;25.60;99.90;;;;;;5008950;28;20540;-75
2022/09/04 10:44:02;;;;;;;12.10;9.20;;;25.80;99.90;;;;;;4995110;28;20507;-76
2022/09/04 10:46:37;;;;;;;13.57;9.23;;;25.60;99.90;;;;;;4992401;28;20893;-76
2022/09/04 10:49:30;;;;;;;12.83;8.53;;;25.60;99.90;;;;;;4992981;28;20459;-76
2022/09/04 10:52:23;;;;;;;12.50;8.33;;;25.70;99.90;;;;;;4999178;28;21033;-76
2022/09/04 10:55:15;;;;;;;13.23;8.87;;;26.00;99.90;;;;;;5010666;28;20554;-77
2022/09/04 10:58:07;;;;;;;17.00;10.27;;;26.40;99.90;;;;;;5000006;28;20494;-76
2022/09/04 11:00:49;;;;;;;18.50;9.23;;;26.00;99.90;;;;;;4998375;28;20467;-77
2022/09/04 11:03:51;;;;;;;16.23;9.13;;;25.80;99.90;;;;;;5010650;28;20565;-77
2022/09/04 11:06:48;;;;;;;12.83;9.03;;;26.10;99.90;;;;;;5003837;28;20501;-77
2022/09/04 11:09:35;;;;;;;12.70;9.70;;;26.20;99.90;;;;;;5004886;28;20547;-77
2022/09/04 11:12:33;;;;;;;18.30;9.27;;;26.10;99.90;;;;;;5007757;28;21068;-77
2022/09/04 11:15:26;;;;;;;11.80;8.17;;;25.80;99.90;;;;;;5007087;28;20563;-77
2022/09/04 11:18:18;;;;;;;14.23;8.90;;;25.90;99.90;;;;;;5005990;28;20859;-77
2022/09/04 11:21:31;;;;;;;14.77;8.80;;;25.90;99.90;;;;;;5001245;28;20515;-77
2022/09/04 11:24:36;;;;;;;12.43;8.10;;;25.80;99.90;;;;;;5006462;28;20478;-77
2022/09/04 11:27:48;;;;;;;14.70;9.10;;;25.70;99.90;;;;;;5011185;28;20486;-76
2022/09/04 11:30:18;;;;;;;17.57;10.07;;;26.00;99.90;;;;;;4996807;28;20460;-75
2022/09/04 11:33:35;;;;;;;13.80;8.13;;;26.20;99.90;;;;;;5003731;28;20483;-75
2022/09/04 11:36:34;;;;;;;16.70;8.30;;;26.20;99.90;;;;;;4991684;28;20458;-76
2022/09/04 11:39:37;;;;;;;11.00;7.20;;;26.10;99.90;;;;;;4991839;28;20464;-77
2022/09/04 11:42:26;;;;;;;13.23;8.57;;;26.10;99.90;;;;;;4998609;28;20954;-75
2022/09/04 11:45:21;;;;;;;11.03;7.07;;;26.10;99.90;;;;;;4994534;28;21011;-76
2022/09/04 11:48:16;;;;;;;10.20;6.77;;;25.90;99.90;;;;;;5005226;28;20499;-75
2022/09/04 11:51:15;;;;;;;8.60;6.97;;;25.80;99.90;;;;;;5000171;28;20860;-76
2022/09/04 11:54:03;;;;;;;12.97;7.47;;;25.80;99.90;;;;;;5003265;28;20494;-76
2022/09/04 11:57:03;;;;;;;8.73;6.27;;;25.70;99.90;;;;;;5000526;28;20510;-76
2022/09/04 11:59:57;;;;;;;18.60;8.30;;;26.00;99.90;;;;;;4995538;28;21135;-76
2022/09/04 12:02:47;;;;;;;10.43;7.40;;;26.10;99.90;;;;;;5002376;28;20474;-76
2022/09/04 12:05:37;;;;;;;10.73;6.93;;;26.00;99.90;;;;;;4999431;28;20451;-76
2022/09/04 12:08:17;;;;;;;8.63;6.80;;;26.20;99.90;;;;;;4995571;28;21050;-77
2022/09/04 12:11:00;;;;;;;9.17;6.80;;;26.20;99.90;;;;;;5003450;28;20960;-76
2022/09/04 12:13:52;;;;;;;7.00;6.20;;;26.30;99.90;;;;;;5004045;28;20565;-77
2022/09/04 12:16:46;;;;;;;7.70;6.83;;;26.30;99.90;;;;;;4995131;28;20462;-77
2022/09/04 12:19:42;;;;;;;10.10;6.20;;;26.30;99.90;;;;;;4995626;28;20456;-76
2022/09/04 12:22:42;;;;;;;6.93;5.57;;;25.90;99.90;;;;;;4997646;28;20455;-76
2022/09/04 12:25:32;;;;;;;9.30;6.23;;;25.70;99.90;;;;;;5007585;28;20901;-76
2022/09/04 12:28:36;;;;;;;8.00;5.83;;;25.60;99.90;;;;;;5000037;28;20460;-74
2022/09/04 12:31:21;;;;;;;11.13;6.83;;;25.70;99.90;;;;;;5009960;28;20963;-74
2022/09/04 12:34:07;;;;;;;8.10;5.27;;;25.70;99.90;;;;;;4998604;28;20495;-75
2022/09/04 12:37:12;;;;;;;5.90;5.30;;;25.50;99.90;;;;;;5003568;28;20448;-75
2022/09/04 12:40:12;;;;;;;8.53;6.07;;;25.40;99.90;;;;;;4992140;28;20450;-76
2022/09/04 12:42:48;;;;;;;8.73;5.63;;;25.20;99.90;;;;;;5013193;28;21052;-76
2022/09/04 12:45:24;;;;;;;9.90;5.17;;;25.10;99.90;;;;;;5007558;28;20506;-76
2022/09/04 12:47:57;;;;;;;8.73;5.83;;;25.10;99.90;;;;;;4996068;28;20455;-78
2022/09/04 12:50:33;;;;;;;12.53;10.70;;;25.00;99.90;;;;;;5005538;28;20452;-76
2022/09/04 12:53:24;;;;;;;7.97;6.33;;;25.00;99.90;;;;;;5006805;28;20490;-77
2022/09/04 12:56:02;;;;;;;345.40;310.73;;;25.10;99.90;;;;;;5009924;28;20463;-74
2022/09/04 12:58:44;;;;;;;18.23;11.80;;;25.30;99.90;;;;;;4999789;28;20464;-72
2022/09/04 13:01:17;;;;;;;6.80;5.30;;;25.50;99.90;;;;;;4994357;28;20809;-69
2022/09/04 13:03:54;;;;;;;6.83;4.90;;;25.60;99.90;;;;;;4994521;28;20522;-69
2022/09/04 13:06:35;;;;;;;9.17;5.13;;;25.60;99.90;;;;;;5001081;28;20927;-73
2022/09/04 13:09:13;;;;;;;6.20;5.00;;;25.70;99.90;;;;;;5013549;28;20863;-74
2022/09/04 13:11:52;;;;;;;4.60;4.20;;;25.90;99.90;;;;;;4996646;28;20495;-76
2022/09/04 13:14:40;;;;;;;10.40;5.60;;;26.00;99.90;;;;;;4994147;28;20440;-77
2022/09/04 13:17:17;;;;;;;87.80;63.17;;;26.20;99.90;;;;;;4973121;28;21006;-75
2022/09/04 13:19:52;;;;;;;11.83;7.07;;;26.70;99.90;;;;;;4995699;28;20574;-76
2022/09/04 13:22:28;;;;;;;11.23;10.03;;;27.40;99.90;;;;;;4995044;28;20491;-76
2022/09/04 13:25:03;;;;;;;12.40;11.23;;;27.90;99.90;;;;;;5012533;28;20541;-76
2022/09/04 13:27:42;;;;;;;1097.43;781.97;;;28.30;99.90;;;;;;5010653;28;20457;-77
2022/09/04 13:30:20;;;;;;;5.45;4.55;;;28.80;99.90;;;;;;5004538;28;20986;-76
2022/09/04 13:33:20;;;;;;;5.00;3.67;;;29.00;99.90;;;;;;5012029;28;20228;-75
2022/09/04 13:36:05;;;;;;;4.57;3.87;;;28.90;99.90;;;;;;4982738;28;20507;-76
2022/09/04 13:39:01;;;;;;;4.53;4.10;;;28.80;99.90;;;;;;4997601;28;20456;-76
2022/09/04 13:41:54;;;;;;;4.57;3.97;;;28.70;99.90;;;;;;5008274;28;20516;-76
2022/09/04 13:44:39;;;;;;;4.30;3.90;;;28.40;99.90;;;;;;5007413;28;20460;-75
2022/09/04 13:47:10;;;;;;;6.30;4.00;;;28.00;99.90;;;;;;4994361;28;20466;-77
2022/09/04 13:49:43;;;;;;;4.20;3.80;;;27.80;99.90;;;;;;5001451;28;20506;-77
2022/09/04 13:52:16;;;;;;;4.83;4.37;;;27.30;99.90;;;;;;5012638;28;20509;-78
2022/09/04 13:54:51;;;;;;;5.50;4.40;;;27.00;99.90;;;;;;5012456;28;20447;-77
2022/09/04 13:57:20;;;;;;;4.07;3.67;;;26.80;99.90;;;;;;5007384;28;20510;-78
2022/09/04 13:59:49;;;;;;;4.60;4.20;;;26.70;99.90;;;;;;4994558;28;20535;-77
2022/09/04 14:02:23;;;;;;;10.53;8.20;;;26.70;99.90;;;;;;5007523;28;20476;-78
2022/09/04 14:04:53;;;;;;;3.80;3.50;;;26.70;99.90;;;;;;5007705;28;20516;-76
2022/09/04 14:07:24;;;;;;;4.50;4.10;;;26.60;99.90;;;;;;5000631;28;20507;-77